Warning: Javascript must be enabled to use all the features on this page!


Page Loading - Please Wait...

Click to hideNews Bulletins
  • Explore the NEW USGS National Water Dashboard interactive map to access real-time water data from over 13,500 stations nationwide.
  • Full News RSS icon
  • USGS has scheduled planned maintenance to our IT infrastructure, starting Tuesday, June 28, 2022, from 8:00-10:00am Eastern Daylight Time (EDT). During the maintenance period, there will be a short interruption in the availability of the most recent time-series data. Any backlog will be made available following conclusion of the scheduled maintenance.

Peak Streamflow for Nevada

Click to hide state-specific text


USGS 10329000 L HUMBOLDT RV NR PARADISE VALLEY, NV

Humboldt County, Nevada
Hydrologic Unit Code 16040109
Latitude  41°24'56.96", Longitude 117°22'24.64" NAD83
Drainage area 1,030  square miles
Gage datum 4,464.4 feet above NAVD88
Output formats
Table
Graph
Tab-separated file
peakfq (watstore) format
Reselect output format
Water
Year
Date Gage
Height
(feet)
Stream-
flow
(cfs)
1922 1922-05-08 9.30 331
1923 1923-02-20 4.35 52.0
1925 1925-03-20   36.0
1926 1926-03-07   66.0
1927 1927-02-23 12.10 500
1944 1944-05-05 3.09 47.0
1945 1945-02-02 9.31 250
1946 1946-04-22 5.37 108
1947 1947-02-15 2.236 48.0
1948 1948-06-04 2.34 62.0
1949 1949-05-20 2.59 103
1950 1950-04-25 2.43 85.0
1951 1951-03-24 2.65 129
1952 1952-02-02 7.71 1,100
1953 1953-06-07 2.15 57.0
1954 1954-04-21 1.76 19.0
1955 1955-05-26 1.88 28.0
1956 1956-03-27 2.72 154
1957 1957-05-14 3.11 182
1958 1958-04-19 5.49 482
1959 1959-04-08 1.66 21.0
1960 1960-03-28 2.10 64.0
1961 1961-04-08 1.76 27.0
1962 1962-04-09 4.67 369
1963 1963-06-19 2.02 54.0
1964 1964-04-18 2.24 97.0
1965 1965-02-01 2.96 198
1966 1966-04-04 1.83 48.0
1967 1967-06-01 2.28 104
1968 1968-02-26 1.77 48.0
1969 1969-01-21 8.40 2,380
1970 1970-01-24 3.43 312
1971 1971-01-20 2.74 218
1972 1972-03-05 3.18 426
1973 1973-01-18 5.496 389
1974 1974-01-18 3.87 232
1975 1975-05-23 3.19 1526
1976 1976-05-09 2.66 94.06
1977 1977-06-10 1.88 17.06
1978 1978-05-09 3.01 1576
1979 1979-06-18 2.18 64.06
1980 1980-01-13 4.49 4566
1981 1981-05-07 1.69 23.06
1982 1982-02-14 2.42 1226
1983 1983-06-02 4.83 5076
1984 1984-05-15 6.46 6786
1985 1985-05-21 1.77 98.06
1986 1986-02-17 2.45 2376
1987 1987-04-23 1.17 80.06
1988 1988-07-13 0.78 42.06
1989 1989-02-20 1.58 87.06
1990 1990-05-02 1.01 40.06
1991 1991-06-08 0.97 36.06
1992 1992-02-20 0.382 14.06
1993 1993-05-03 1.45 68.06
1994 1994-06-03 0.74 26.06
1995 1995-05-22 2.29 1396
1996 1996-05-06 1.43 71.06
1997 1997-04-22 1.25 71.06
1998 1998-05-04 4.376 79.06
1999 1999-05-22 4.53 1036
2000 2000-04-29 4.00 67.06
2001 2001-04-23 4.01 68.06
2002 2002-04-25 4.46 82.06
2003 2003-05-17 3.73 43.06
2004 2004-04-18 4.65 77.06
2005 2005-05-19 4.70 92.06
2006 2006-04-24 4.66 1036
2007 2007-08-07 3.62 43.06
2008 2008-04-19 4.45 94.06
2009 2009-05-31 3.99 57.06
2010 2010-08-29 4.06 68.06
2011 2011-05-09 4.62 94.06
2012 2012-06-26 4.21 55.06
2013 2013-05-03 3.33 29.06
2014 2014-04-12 4.38 63.06
2015 2015-05-10 4.35 35.06
2016 2016-04-20 4.88 91.06
2017 2017-01-11 10.05 5926
2018 2018-06-20 4.49 71.06
2019 2019-05-13 4.572,R 81.36,R
2020 2020-04-28 4.25 58.46
2021 2021-04-28 4.26 54.76
?
  Peak Gage-Height Qualification Codes.
?
  Peak Streamflow Qualification Codes.